createdAt,value
2017-08-24T00:00:52.043Z,0
2017-08-24T00:01:51.742Z,0
2017-08-24T00:02:51.983Z,0
2017-08-24T00:03:52.084Z,0
2017-08-24T00:04:52.028Z,0
2017-08-24T00:05:51.524Z,0
2017-08-24T00:06:51.809Z,0
2017-08-24T00:07:51.745Z,0
2017-08-24T00:08:52.057Z,0
2017-08-24T00:09:51.796Z,0
2017-08-24T00:10:52.062Z,0
2017-08-24T00:11:51.434Z,0
2017-08-24T00:12:51.480Z,0
2017-08-24T00:13:51.780Z,0
2017-08-24T00:14:51.742Z,0
2017-08-24T00:15:51.765Z,0
2017-08-24T00:16:51.722Z,0
2017-08-24T00:17:52.220Z,0
2017-08-24T00:18:52.098Z,0
2017-08-24T00:19:51.791Z,0
2017-08-24T00:20:51.764Z,0
2017-08-24T00:21:51.819Z,0
2017-08-24T00:22:51.744Z,0
2017-08-24T00:23:51.515Z,0
2017-08-24T00:24:52.112Z,0
2017-08-24T00:25:51.860Z,0
2017-08-24T00:26:51.531Z,0
2017-08-24T00:27:51.846Z,0
2017-08-24T00:28:55.419Z,0
2017-08-24T00:29:52.115Z,0
2017-08-24T00:30:52.092Z,0
2017-08-24T00:31:51.515Z,0
2017-08-24T00:32:51.470Z,0
2017-08-24T00:33:51.530Z,0
2017-08-24T00:34:51.480Z,0
2017-08-24T00:35:51.546Z,0
2017-08-24T00:36:52.159Z,0
2017-08-24T00:37:52.089Z,0
2017-08-24T00:38:51.845Z,0
2017-08-24T00:39:51.985Z,0
2017-08-24T00:40:51.546Z,0
2017-08-24T00:41:52.104Z,0
2017-08-24T00:42:52.191Z,0
2017-08-24T00:43:52.812Z,0
2017-08-24T00:44:52.135Z,0
2017-08-24T00:45:52.170Z,0
2017-08-24T00:46:51.849Z,0
2017-08-24T00:47:52.215Z,0
2017-08-24T00:48:52.157Z,0
2017-08-24T00:49:51.942Z,0
2017-08-24T00:50:52.216Z,0
2017-08-24T00:51:51.905Z,0
2017-08-24T00:52:51.850Z,0
2017-08-24T00:53:52.193Z,0
2017-08-24T00:54:51.535Z,0
2017-08-24T00:55:51.926Z,0
2017-08-24T00:56:51.954Z,0
2017-08-24T00:57:52.301Z,0
2017-08-24T00:58:51.970Z,0
2017-08-24T00:59:51.850Z,0
2017-08-24T01:00:51.874Z,0
2017-08-24T01:01:51.579Z,0
2017-08-24T01:02:51.210Z,0
2017-08-24T01:03:51.533Z,0
2017-08-24T01:04:51.936Z,0
2017-08-24T01:05:52.174Z,0
2017-08-24T01:06:51.925Z,0
2017-08-24T01:07:51.885Z,0
2017-08-24T01:08:51.921Z,0
2017-08-24T01:09:51.902Z,0
2017-08-24T01:10:51.913Z,0
2017-08-24T01:11:51.632Z,0
2017-08-24T01:12:52.204Z,0
2017-08-24T01:13:51.990Z,0
2017-08-24T01:14:54.680Z,0
2017-08-24T01:15:51.951Z,0
2017-08-24T01:16:51.583Z,0
2017-08-24T01:17:51.862Z,0
2017-08-24T01:18:52.247Z,0
2017-08-24T01:19:51.872Z,0
2017-08-24T01:20:51.941Z,0
2017-08-24T01:21:51.937Z,0
2017-08-24T01:22:51.862Z,0
2017-08-24T01:23:52.204Z,0
2017-08-24T01:24:52.183Z,0
2017-08-24T01:25:52.254Z,0
2017-08-24T01:26:51.984Z,0
2017-08-24T01:27:52.254Z,0
2017-08-24T01:28:51.996Z,0
2017-08-24T01:29:53.307Z,0
2017-08-24T01:30:51.978Z,0
2017-08-24T01:31:51.968Z,0
2017-08-24T01:32:52.252Z,0
2017-08-24T01:33:51.928Z,0
2017-08-24T01:34:51.956Z,0
2017-08-24T01:35:52.245Z,0
2017-08-24T01:36:51.874Z,0
2017-08-24T01:37:51.642Z,0
2017-08-24T01:38:52.233Z,0
2017-08-24T01:39:51.946Z,0
2017-08-24T01:40:52.284Z,0
2017-08-24T01:41:52.745Z,0
2017-08-24T01:42:52.439Z,0
2017-08-24T01:43:52.941Z,0
2017-08-24T01:44:52.480Z,0
2017-08-24T01:45:51.958Z,0
2017-08-24T01:46:52.253Z,0
2017-08-24T01:47:51.921Z,0
2017-08-24T01:48:52.361Z,0
2017-08-24T01:49:52.235Z,0
2017-08-24T01:50:52.216Z,0
2017-08-24T01:51:52.511Z,0
2017-08-24T01:52:52.283Z,0
2017-08-24T01:53:52.387Z,0
2017-08-24T01:54:52.314Z,0
2017-08-24T01:55:52.673Z,0
2017-08-24T01:56:51.940Z,0
2017-08-24T01:57:52.316Z,0
2017-08-24T01:58:52.024Z,0
2017-08-24T01:59:54.083Z,0
2017-08-24T02:00:52.000Z,0
2017-08-24T02:01:52.252Z,0
2017-08-24T02:02:51.848Z,0
2017-08-24T02:03:52.310Z,0
2017-08-24T02:04:52.317Z,0
2017-08-24T02:05:51.717Z,0
2017-08-24T02:06:51.985Z,0
2017-08-24T02:07:52.006Z,0
2017-08-24T02:08:52.209Z,0
2017-08-24T02:09:51.961Z,0
2017-08-24T02:10:51.658Z,0
2017-08-24T02:11:52.098Z,0
2017-08-24T02:12:52.432Z,0
2017-08-24T02:13:52.288Z,0
2017-08-24T02:14:52.303Z,0
2017-08-24T02:15:52.052Z,0
2017-08-24T02:16:52.034Z,0
2017-08-24T02:17:52.321Z,0
2017-08-24T02:18:52.000Z,0
2017-08-24T02:19:52.329Z,0
2017-08-24T02:20:52.317Z,0
2017-08-24T02:21:51.369Z,0
2017-08-24T02:22:52.316Z,0
2017-08-24T02:23:51.700Z,0
2017-08-24T02:24:52.026Z,0
2017-08-24T02:25:52.371Z,0
2017-08-24T02:26:52.031Z,0
2017-08-24T02:27:52.470Z,0
2017-08-24T02:28:52.313Z,0
2017-08-24T02:29:51.715Z,0
2017-08-24T02:30:51.481Z,0
2017-08-24T02:31:52.369Z,0
2017-08-24T02:32:51.726Z,0
2017-08-24T02:33:51.735Z,0
2017-08-24T02:34:51.822Z,0
2017-08-24T02:35:51.781Z,0
2017-08-24T02:36:52.323Z,0
2017-08-24T02:37:52.320Z,0
2017-08-24T02:38:51.784Z,0
2017-08-24T02:39:52.382Z,0
2017-08-24T02:40:52.077Z,0
2017-08-24T02:41:51.482Z,0
2017-08-24T02:42:52.353Z,0
2017-08-24T02:43:52.245Z,0
2017-08-24T02:44:51.966Z,0
2017-08-24T02:45:51.958Z,0
2017-08-24T02:46:52.256Z,0
2017-08-24T02:47:51.961Z,0
2017-08-24T02:48:52.254Z,0
2017-08-24T02:49:52.253Z,0
2017-08-24T02:50:52.274Z,0
2017-08-24T02:51:51.980Z,0
2017-08-24T02:52:51.658Z,0
2017-08-24T02:53:51.959Z,0
2017-08-24T02:54:52.032Z,0
2017-08-24T02:55:52.261Z,0
2017-08-24T02:56:52.257Z,0
2017-08-24T02:57:51.664Z,0
2017-08-24T02:58:51.972Z,0
2017-08-24T02:59:51.992Z,0
2017-08-24T03:00:57.070Z,0
2017-08-24T03:01:51.987Z,0
2017-08-24T03:02:52.275Z,0
2017-08-24T03:03:51.978Z,0
2017-08-24T03:04:52.284Z,0
2017-08-24T03:05:51.988Z,0
2017-08-24T03:06:51.988Z,0
2017-08-24T03:07:52.284Z,0
2017-08-24T03:08:52.282Z,0
2017-08-24T03:09:51.999Z,0
2017-08-24T03:10:51.992Z,0
2017-08-24T03:11:52.290Z,0
2017-08-24T03:12:51.686Z,0
2017-08-24T03:13:52.021Z,0
2017-08-24T03:14:52.302Z,0
2017-08-24T03:15:52.292Z,0
2017-08-24T03:16:52.001Z,0
2017-08-24T03:17:52.304Z,0
2017-08-24T03:18:52.295Z,0
2017-08-24T03:19:52.312Z,0
2017-08-24T03:20:52.018Z,0
2017-08-24T03:21:52.313Z,0
2017-08-24T03:22:52.320Z,0
2017-08-24T03:23:52.298Z,0
2017-08-24T03:24:51.703Z,0
2017-08-24T03:25:52.303Z,0
2017-08-24T03:26:52.308Z,0
2017-08-24T03:27:52.033Z,0
2017-08-24T03:28:52.311Z,0
2017-08-24T03:29:52.310Z,0
2017-08-24T03:30:53.280Z,0
2017-08-24T03:31:52.309Z,0
2017-08-24T03:32:52.040Z,0
2017-08-24T03:33:52.326Z,0
2017-08-24T03:34:52.043Z,0
2017-08-24T03:35:52.031Z,0
2017-08-24T03:36:52.327Z,0
2017-08-24T03:37:52.330Z,0
2017-08-24T03:38:52.441Z,0
2017-08-24T03:39:52.045Z,0
2017-08-24T03:40:52.337Z,0
2017-08-24T03:41:52.048Z,0
2017-08-24T03:42:52.044Z,0
2017-08-24T03:43:52.063Z,0
2017-08-24T03:44:52.063Z,0
2017-08-24T03:45:52.330Z,0
2017-08-24T03:46:52.341Z,0
2017-08-24T03:47:52.332Z,0
2017-08-24T03:48:52.056Z,0
2017-08-24T03:49:52.067Z,0
2017-08-24T03:50:52.048Z,0
2017-08-24T03:51:52.346Z,0
2017-08-24T03:52:52.052Z,0
2017-08-24T03:53:52.066Z,0
2017-08-24T03:54:52.081Z,0
2017-08-24T03:55:52.352Z,4
2017-08-24T03:56:52.067Z,4
2017-08-24T03:57:52.358Z,4
2017-08-24T03:58:52.349Z,4
2017-08-24T03:59:52.079Z,0
2017-08-24T04:00:52.363Z,4
2017-08-24T04:01:52.087Z,4
2017-08-24T04:02:52.094Z,4
2017-08-24T04:03:52.379Z,4
2017-08-24T04:04:52.366Z,8
2017-08-24T04:05:52.082Z,4
2017-08-24T04:06:52.079Z,8
2017-08-24T04:07:52.371Z,8
2017-08-24T04:08:52.385Z,12
2017-08-24T04:09:51.774Z,12
2017-08-24T04:10:52.378Z,16
2017-08-24T04:11:52.392Z,20
2017-08-24T04:12:52.397Z,24
2017-08-24T04:13:52.394Z,28
2017-08-24T04:14:52.391Z,32
2017-08-24T04:15:51.785Z,32
2017-08-24T04:16:53.992Z,44
2017-08-24T04:17:52.638Z,44
2017-08-24T04:18:51.806Z,56
2017-08-24T04:19:52.390Z,64
2017-08-24T04:20:52.393Z,68
2017-08-24T04:21:52.393Z,80
2017-08-24T04:22:52.429Z,88
2017-08-24T04:23:52.397Z,96
2017-08-24T04:24:52.421Z,104
2017-08-24T04:25:52.419Z,116
2017-08-24T04:26:52.120Z,128
2017-08-24T04:27:51.799Z,144
2017-08-24T04:28:52.420Z,160
2017-08-24T04:29:52.134Z,176
2017-08-24T04:30:52.130Z,200
2017-08-24T04:31:54.476Z,224
2017-08-24T04:32:52.415Z,252
2017-08-24T04:33:52.137Z,284
2017-08-24T04:34:52.138Z,316
2017-08-24T04:35:52.418Z,352
2017-08-24T04:36:52.424Z,392
2017-08-24T04:37:52.138Z,432
2017-08-24T04:38:52.144Z,472
2017-08-24T04:39:52.438Z,512
2017-08-24T04:40:52.139Z,552
2017-08-24T04:41:52.157Z,596
2017-08-24T04:42:52.163Z,636
2017-08-24T04:43:52.429Z,708
2017-08-24T04:44:52.164Z,724
2017-08-24T04:45:52.431Z,768
2017-08-24T04:46:52.434Z,816
2017-08-24T04:47:52.442Z,860
2017-08-24T04:48:52.161Z,912
2017-08-24T04:49:52.465Z,960
2017-08-24T04:50:52.447Z,1012
2017-08-24T04:51:52.178Z,1060
2017-08-24T04:52:52.155Z,1116
2017-08-24T04:53:52.448Z,1176
2017-08-24T04:54:51.849Z,1232
2017-08-24T04:55:52.164Z,1288
2017-08-24T04:56:52.469Z,1344
2017-08-24T04:57:52.158Z,1412
2017-08-24T04:58:52.484Z,1500
2017-08-24T04:59:52.472Z,1656
2017-08-24T05:00:52.184Z,1836
2017-08-24T05:01:58.225Z,1820
2017-08-24T05:02:52.180Z,2116
2017-08-24T05:03:52.478Z,2212
2017-08-24T05:04:52.502Z,2260
2017-08-24T05:05:52.494Z,2332
2017-08-24T05:06:52.182Z,2476
2017-08-24T05:07:52.495Z,2596
2017-08-24T05:08:52.502Z,2696
2017-08-24T05:09:52.497Z,2792
2017-08-24T05:10:52.501Z,2864
2017-08-24T05:11:51.913Z,2884
2017-08-24T05:12:52.222Z,2912
2017-08-24T05:13:52.507Z,3056
2017-08-24T05:14:52.218Z,3080
2017-08-24T05:15:52.502Z,3184
2017-08-24T05:16:52.210Z,3328
2017-08-24T05:17:52.513Z,3464
2017-08-24T05:18:52.229Z,3548
2017-08-24T05:19:52.237Z,3616
2017-08-24T05:20:52.216Z,3764
2017-08-24T05:21:52.515Z,3768
2017-08-24T05:22:52.523Z,3948
2017-08-24T05:23:52.254Z,4044
2017-08-24T05:24:52.252Z,4076
2017-08-24T05:25:52.235Z,4124
2017-08-24T05:26:52.532Z,3888
2017-08-24T05:27:52.235Z,3952
2017-08-24T05:28:52.242Z,3868
2017-08-24T05:29:52.543Z,4132
2017-08-24T05:30:52.547Z,3964
2017-08-24T05:31:51.973Z,4040
2017-08-24T05:32:54.516Z,4056
2017-08-24T05:33:52.550Z,4080
2017-08-24T05:34:52.279Z,3908
2017-08-24T05:35:52.570Z,4224
2017-08-24T05:36:52.572Z,4240
2017-08-24T05:37:52.563Z,4312
2017-08-24T05:38:52.274Z,4452
2017-08-24T05:39:52.268Z,4484
2017-08-24T05:40:52.577Z,4592
2017-08-24T05:41:52.578Z,4616
2017-08-24T05:42:52.584Z,4624
2017-08-24T05:43:52.589Z,4904
2017-08-24T05:44:52.301Z,5224
2017-08-24T05:45:52.014Z,5472
2017-08-24T05:46:52.295Z,5304
2017-08-24T05:47:52.605Z,5004
2017-08-24T05:48:52.601Z,5624
2017-08-24T05:49:52.319Z,5780
2017-08-24T05:50:52.622Z,5892
2017-08-24T05:51:52.306Z,5836
2017-08-24T05:52:52.016Z,5916
2017-08-24T05:53:52.638Z,5912
2017-08-24T05:54:52.043Z,5900
2017-08-24T05:55:52.326Z,5840
2017-08-24T05:56:52.335Z,5720
2017-08-24T05:57:52.357Z,5616
2017-08-24T05:58:52.642Z,5600
2017-08-24T05:59:52.684Z,5484
2017-08-24T06:00:52.649Z,5424
2017-08-24T06:01:52.100Z,5432
2017-08-24T06:02:53.909Z,5404
2017-08-24T06:03:52.365Z,5396
2017-08-24T06:04:52.385Z,5524
2017-08-24T06:05:52.685Z,5600
2017-08-24T06:06:52.135Z,5700
2017-08-24T06:07:52.112Z,5748
2017-08-24T06:08:52.405Z,5812
2017-08-24T06:09:52.706Z,5868
2017-08-24T06:10:52.412Z,5956
2017-08-24T06:11:52.706Z,6072
2017-08-24T06:12:52.404Z,6204
2017-08-24T06:13:52.711Z,6324
2017-08-24T06:14:52.443Z,6392
2017-08-24T06:15:52.723Z,6460
2017-08-24T06:16:52.144Z,6520
2017-08-24T06:17:52.724Z,6672
2017-08-24T06:18:52.429Z,6848
2017-08-24T06:19:52.752Z,6964
2017-08-24T06:20:52.438Z,7076
2017-08-24T06:21:52.441Z,7296
2017-08-24T06:22:52.458Z,7668
2017-08-24T06:23:52.755Z,7652
2017-08-24T06:24:52.482Z,8564
2017-08-24T06:25:52.763Z,8156
2017-08-24T06:26:52.477Z,8040
2017-08-24T06:27:52.476Z,8004
2017-08-24T06:28:52.477Z,7928
2017-08-24T06:29:52.491Z,7948
2017-08-24T06:30:52.789Z,7548
2017-08-24T06:31:52.789Z,7252
2017-08-24T06:32:55.850Z,7492
2017-08-24T06:33:52.808Z,8056
2017-08-24T06:34:52.510Z,8596
2017-08-24T06:35:52.537Z,8600
2017-08-24T06:36:52.521Z,8532
2017-08-24T06:37:52.819Z,8584
2017-08-24T06:38:52.831Z,8564
2017-08-24T06:39:52.873Z,8400
2017-08-24T06:40:52.839Z,8208
2017-08-24T06:41:52.845Z,8712
2017-08-24T06:42:52.852Z,8932
2017-08-24T06:43:52.854Z,8952
2017-08-24T06:44:52.873Z,8932
2017-08-24T06:45:52.861Z,8840
2017-08-24T06:46:52.878Z,8748
2017-08-24T06:47:52.888Z,8452
2017-08-24T06:48:52.885Z,8608
2017-08-24T06:49:52.901Z,9048
2017-08-24T06:50:52.610Z,9172
2017-08-24T06:51:52.599Z,9236
2017-08-24T06:52:52.909Z,9156
2017-08-24T06:53:52.642Z,8880
2017-08-24T06:54:52.932Z,9876
2017-08-24T06:55:52.933Z,8260
2017-08-24T06:56:52.932Z,7132
2017-08-24T06:57:52.942Z,8832
2017-08-24T06:58:52.947Z,9632
2017-08-24T06:59:52.973Z,10228
2017-08-24T07:00:52.677Z,10300
2017-08-24T07:01:52.971Z,10104
2017-08-24T07:02:52.367Z,9684
2017-08-24T07:03:52.374Z,9596
2017-08-24T07:04:52.685Z,9244
2017-08-24T07:05:52.390Z,8420
2017-08-24T07:06:52.996Z,7684
2017-08-24T07:07:52.998Z,7072
2017-08-24T07:08:52.710Z,7288
2017-08-24T07:09:53.013Z,7328
2017-08-24T07:10:53.019Z,7240
2017-08-24T07:11:52.727Z,7500
2017-08-24T07:12:52.729Z,7764
2017-08-24T07:13:53.043Z,7956
2017-08-24T07:14:52.783Z,8120
2017-08-24T07:15:53.054Z,8364
2017-08-24T07:16:53.055Z,8716
2017-08-24T07:17:52.758Z,8748
2017-08-24T07:18:52.763Z,9356
2017-08-24T07:19:52.471Z,9612
2017-08-24T07:20:53.082Z,10396
2017-08-24T07:21:53.082Z,10748
2017-08-24T07:22:53.113Z,10480
2017-08-24T07:23:53.112Z,10440
2017-08-24T07:24:52.799Z,10232
2017-08-24T07:25:53.114Z,10152
2017-08-24T07:26:53.124Z,8076
2017-08-24T07:27:53.127Z,9036
2017-08-24T07:28:53.133Z,6904
2017-08-24T07:29:53.141Z,6556
2017-08-24T07:30:52.841Z,6428
2017-08-24T07:31:53.151Z,6428
2017-08-24T07:32:53.155Z,6332
2017-08-24T07:33:57.463Z,6336
2017-08-24T07:34:53.177Z,6416
2017-08-24T07:35:52.669Z,6412
2017-08-24T07:36:53.199Z,6424
2017-08-24T07:37:53.214Z,6504
2017-08-24T07:38:53.202Z,6604
2017-08-24T07:39:53.201Z,6652
2017-08-24T07:40:53.204Z,6736
2017-08-24T07:41:53.235Z,6852
2017-08-24T07:42:53.216Z,6796
2017-08-24T07:43:52.919Z,6672
2017-08-24T07:44:53.223Z,6484
2017-08-24T07:45:53.236Z,6180
2017-08-24T07:46:53.247Z,6008
2017-08-24T07:47:53.243Z,5876
2017-08-24T07:48:53.168Z,5740
2017-08-24T07:49:52.961Z,5688
2017-08-24T07:50:53.277Z,5740
2017-08-24T07:51:52.968Z,5840
2017-08-24T07:52:52.969Z,5936
2017-08-24T07:53:53.286Z,6136
2017-08-24T07:54:53.024Z,6572
2017-08-24T07:55:52.530Z,7180
2017-08-24T07:56:52.912Z,8636
2017-08-24T07:57:53.782Z,8780
2017-08-24T07:58:53.180Z,8228
2017-08-24T07:59:53.137Z,8696
2017-08-24T08:00:53.521Z,10844
2017-08-24T08:01:52.934Z,10336
2017-08-24T08:02:53.178Z,10356
2017-08-24T08:03:53.010Z,10232
2017-08-24T08:04:53.447Z,7568
2017-08-24T08:05:53.145Z,7964
2017-08-24T08:06:53.386Z,8404
2017-08-24T08:07:53.148Z,10804
2017-08-24T08:08:52.908Z,11396
2017-08-24T08:09:53.528Z,10600
2017-08-24T08:10:53.369Z,8596
2017-08-24T08:11:53.244Z,11008
2017-08-24T08:12:53.217Z,9328
2017-08-24T08:13:53.225Z,8776
2017-08-24T08:14:53.281Z,7720
2017-08-24T08:15:53.532Z,7836
2017-08-24T08:16:53.655Z,11160
2017-08-24T08:17:53.373Z,11012
2017-08-24T08:18:57.731Z,11260
2017-08-24T08:19:53.553Z,9344
2017-08-24T08:20:53.097Z,11652
2017-08-24T08:21:53.855Z,9552
2017-08-24T08:22:53.367Z,11648
2017-08-24T08:23:53.087Z,11264
2017-08-24T08:24:53.355Z,11312
2017-08-24T08:25:53.239Z,10844
2017-08-24T08:26:53.342Z,10184
2017-08-24T08:27:53.638Z,9748
2017-08-24T08:28:53.451Z,9508
2017-08-24T08:29:53.112Z,8824
2017-08-24T08:30:53.376Z,9128
2017-08-24T08:31:53.289Z,9952
2017-08-24T08:32:53.362Z,11092
2017-08-24T08:33:53.448Z,11308
2017-08-24T08:34:58.041Z,11444
2017-08-24T08:35:53.503Z,11628
2017-08-24T08:36:53.421Z,11480
2017-08-24T08:37:53.097Z,11704
2017-08-24T08:38:53.098Z,11320
2017-08-24T08:39:53.839Z,11768
2017-08-24T08:40:53.327Z,11256
2017-08-24T08:41:53.386Z,11144
2017-08-24T08:42:53.110Z,11636
2017-08-24T08:43:53.090Z,11680
2017-08-24T08:44:53.279Z,12032
2017-08-24T08:45:53.598Z,11964
2017-08-24T08:46:53.852Z,12136
2017-08-24T08:47:53.510Z,11784
2017-08-24T08:48:53.782Z,12048
2017-08-24T08:49:53.608Z,11924
2017-08-24T08:50:53.588Z,9200
2017-08-24T08:51:53.958Z,11656
2017-08-24T08:52:53.793Z,11824
2017-08-24T08:53:54.327Z,12388
2017-08-24T08:54:53.122Z,12100
2017-08-24T08:55:53.893Z,9168
2017-08-24T08:56:53.166Z,11648
2017-08-24T08:57:53.855Z,9672
2017-08-24T08:58:53.600Z,9832
2017-08-24T08:59:53.249Z,9004
2017-08-24T09:00:53.947Z,11312
2017-08-24T09:01:53.542Z,9348
2017-08-24T09:02:53.846Z,10664
2017-08-24T09:03:53.836Z,9992
2017-08-24T09:04:59.217Z,12756
2017-08-24T09:05:53.098Z,12864
2017-08-24T09:06:53.961Z,13104
2017-08-24T09:07:53.846Z,13284
2017-08-24T09:08:54.021Z,12900
2017-08-24T09:09:54.231Z,14120
2017-08-24T09:10:53.877Z,13652
2017-08-24T09:11:53.261Z,13392
2017-08-24T09:12:54.359Z,14284
2017-08-24T09:13:53.978Z,12516
2017-08-24T09:14:54.007Z,11332
2017-08-24T09:15:54.527Z,12508
2017-08-24T09:16:54.199Z,13604
2017-08-24T09:17:53.300Z,13408
2017-08-24T09:18:54.111Z,12368
2017-08-24T09:19:54.006Z,13752
2017-08-24T09:20:53.532Z,13720
2017-08-24T09:21:53.874Z,13316
2017-08-24T09:22:53.326Z,13164
2017-08-24T09:23:53.342Z,12840
2017-08-24T09:24:54.026Z,12636
2017-08-24T09:25:53.630Z,12492
2017-08-24T09:26:54.206Z,12780
2017-08-24T09:27:54.031Z,12656
2017-08-24T09:28:53.450Z,12568
2017-08-24T09:29:53.707Z,12496
2017-08-24T09:30:53.593Z,11240
2017-08-24T09:31:53.936Z,10864
2017-08-24T09:32:53.926Z,12100
2017-08-24T09:33:53.619Z,11940
2017-08-24T09:34:53.319Z,11684
2017-08-24T09:35:54.360Z,11744
2017-08-24T09:36:53.650Z,11224
2017-08-24T09:37:53.655Z,11380
2017-08-24T09:38:53.351Z,11036
2017-08-24T09:39:53.962Z,11900
2017-08-24T09:40:53.989Z,11988
2017-08-24T09:41:53.722Z,11380
2017-08-24T09:42:53.382Z,11704
2017-08-24T09:43:53.750Z,12428
2017-08-24T09:44:54.033Z,12408
2017-08-24T09:45:53.427Z,12204
2017-08-24T09:46:53.729Z,11964
2017-08-24T09:47:53.423Z,12080
2017-08-24T09:48:53.748Z,12348
2017-08-24T09:49:54.033Z,12404
2017-08-24T09:50:54.512Z,12436
2017-08-24T09:51:54.030Z,12512
2017-08-24T09:52:53.734Z,12344
2017-08-24T09:53:53.742Z,10072
2017-08-24T09:54:54.095Z,12368
2017-08-24T09:55:54.064Z,12336
2017-08-24T09:56:53.753Z,12368
2017-08-24T09:57:54.070Z,12492
2017-08-24T09:58:54.070Z,12520
2017-08-24T09:59:53.787Z,12548
2017-08-24T10:00:53.470Z,12360
2017-08-24T10:01:53.784Z,11876
2017-08-24T10:02:53.480Z,11420
2017-08-24T10:03:54.142Z,10984
2017-08-24T10:04:54.122Z,10796
2017-08-24T10:05:55.217Z,10692
2017-08-24T10:06:53.815Z,8136
2017-08-24T10:07:53.822Z,8928
2017-08-24T10:08:54.139Z,7944
2017-08-24T10:09:53.528Z,8068
2017-08-24T10:10:54.153Z,11008
2017-08-24T10:11:54.179Z,11464
2017-08-24T10:12:54.203Z,11416
2017-08-24T10:13:53.857Z,10776
2017-08-24T10:14:54.197Z,10296
2017-08-24T10:15:54.182Z,10104
2017-08-24T10:16:53.570Z,9960
2017-08-24T10:17:53.885Z,9768
2017-08-24T10:18:53.576Z,9852
2017-08-24T10:19:53.897Z,9588
2017-08-24T10:20:53.897Z,9204
2017-08-24T10:21:53.601Z,9112
2017-08-24T10:22:54.013Z,8900
2017-08-24T10:23:54.230Z,8356
2017-08-24T10:24:53.950Z,7020
2017-08-24T10:25:53.930Z,9044
2017-08-24T10:26:53.655Z,9024
2017-08-24T10:27:53.953Z,9084
2017-08-24T10:28:54.172Z,9108
2017-08-24T10:29:54.415Z,8968
2017-08-24T10:30:54.123Z,8508
2017-08-24T10:31:53.976Z,6644
2017-08-24T10:32:53.682Z,7412
2017-08-24T10:33:53.991Z,6784
2017-08-24T10:34:53.990Z,7312
2017-08-24T10:35:53.684Z,8792
2017-08-24T10:36:55.190Z,8912
2017-08-24T10:37:53.731Z,8540
2017-08-24T10:38:54.327Z,8880
2017-08-24T10:39:54.035Z,8876
2017-08-24T10:40:54.343Z,8632
2017-08-24T10:41:54.033Z,8616
2017-08-24T10:42:53.807Z,7136
2017-08-24T10:43:54.038Z,8192
2017-08-24T10:44:54.044Z,8376
2017-08-24T10:45:54.362Z,8640
2017-08-24T10:46:54.299Z,8644
2017-08-24T10:47:54.173Z,8644
2017-08-24T10:48:54.063Z,8616
2017-08-24T10:49:53.772Z,8620
2017-08-24T10:50:54.396Z,8612
2017-08-24T10:51:54.131Z,8584
2017-08-24T10:52:53.926Z,8556
2017-08-24T10:53:54.140Z,8520
2017-08-24T10:54:53.488Z,8460
2017-08-24T10:55:54.109Z,8256
2017-08-24T10:56:54.114Z,8424
2017-08-24T10:57:54.117Z,8404
2017-08-24T10:58:54.147Z,8424
2017-08-24T10:59:53.819Z,8056
2017-08-24T11:00:54.456Z,8344
2017-08-24T11:01:54.474Z,8464
2017-08-24T11:02:54.150Z,8408
2017-08-24T11:03:54.181Z,8100
2017-08-24T11:04:54.157Z,8356
2017-08-24T11:05:54.158Z,8244
2017-08-24T11:06:58.186Z,8284
2017-08-24T11:07:53.865Z,8028
2017-08-24T11:08:53.873Z,8148
2017-08-24T11:09:54.189Z,7504
2017-08-24T11:10:54.538Z,7236
2017-08-24T11:11:54.579Z,7468
2017-08-24T11:12:54.528Z,7920
2017-08-24T11:13:54.212Z,8392
2017-08-24T11:14:54.214Z,8420
2017-08-24T11:15:54.558Z,7856
2017-08-24T11:16:54.215Z,7944
2017-08-24T11:17:54.005Z,7548
2017-08-24T11:18:53.928Z,6704
2017-08-24T11:19:53.707Z,8148
2017-08-24T11:20:54.298Z,8188
2017-08-24T11:21:54.598Z,6448
2017-08-24T11:22:54.350Z,6360
2017-08-24T11:23:53.971Z,6580
2017-08-24T11:24:54.315Z,7652
2017-08-24T11:25:54.288Z,7212
2017-08-24T11:26:54.620Z,7816
2017-08-24T11:27:54.331Z,7904
2017-08-24T11:28:54.318Z,7820
2017-08-24T11:29:54.301Z,8064
2017-08-24T11:30:54.296Z,7984
2017-08-24T11:31:54.369Z,8116
2017-08-24T11:32:54.424Z,8092
2017-08-24T11:33:54.635Z,8032
2017-08-24T11:34:54.632Z,8056
2017-08-24T11:35:54.334Z,7452
2017-08-24T11:36:54.384Z,7396
2017-08-24T11:37:54.355Z,7268
2017-08-24T11:38:54.654Z,7328
2017-08-24T11:39:54.684Z,6768
2017-08-24T11:40:53.728Z,7600
2017-08-24T11:41:54.706Z,7732
2017-08-24T11:42:54.055Z,6784
2017-08-24T11:43:54.368Z,6320
2017-08-24T11:44:54.448Z,7128
2017-08-24T11:45:54.386Z,6876
2017-08-24T11:46:54.778Z,7256
2017-08-24T11:47:54.091Z,7320
2017-08-24T11:48:54.412Z,7284
2017-08-24T11:49:54.413Z,7268
2017-08-24T11:50:54.246Z,7444
2017-08-24T11:51:54.769Z,7444
2017-08-24T11:52:54.458Z,7452
2017-08-24T11:53:54.427Z,7324
2017-08-24T11:54:53.812Z,7460
2017-08-24T11:55:54.454Z,7536
2017-08-24T11:56:54.473Z,6928
2017-08-24T11:57:54.160Z,7264
2017-08-24T11:58:54.453Z,7624
2017-08-24T11:59:54.164Z,7640
2017-08-24T12:00:54.586Z,7768
2017-08-24T12:01:54.627Z,7772
2017-08-24T12:02:54.520Z,7824
2017-08-24T12:03:54.512Z,7740
2017-08-24T12:04:54.183Z,7736
2017-08-24T12:05:54.819Z,7392
2017-08-24T12:06:54.816Z,7732
2017-08-24T12:07:54.209Z,7764
2017-08-24T12:08:55.105Z,7756
2017-08-24T12:09:54.101Z,7768
2017-08-24T12:10:54.573Z,7736
2017-08-24T12:11:54.548Z,7836
2017-08-24T12:12:53.934Z,7892
2017-08-24T12:13:54.419Z,7136
2017-08-24T12:14:54.930Z,6140
2017-08-24T12:15:54.552Z,6072
2017-08-24T12:16:54.901Z,6880
2017-08-24T12:17:54.128Z,6752
2017-08-24T12:18:54.605Z,7064
2017-08-24T12:19:54.889Z,6892
2017-08-24T12:20:54.281Z,7396
2017-08-24T12:21:54.585Z,7332
2017-08-24T12:22:54.588Z,7400
2017-08-24T12:23:54.612Z,7448
2017-08-24T12:24:54.015Z,7296
2017-08-24T12:25:54.609Z,7468
2017-08-24T12:26:54.988Z,7656
2017-08-24T12:27:54.625Z,7700
2017-08-24T12:28:54.700Z,7676
2017-08-24T12:29:54.669Z,7144
2017-08-24T12:30:54.352Z,7364
2017-08-24T12:31:54.651Z,7204
2017-08-24T12:32:54.400Z,7176
2017-08-24T12:33:54.486Z,7112
2017-08-24T12:34:54.968Z,7244
2017-08-24T12:35:54.975Z,7624
2017-08-24T12:36:54.703Z,7588
2017-08-24T12:37:54.729Z,7288
2017-08-24T12:38:54.734Z,7308
2017-08-24T12:39:54.418Z,7272
2017-08-24T12:40:55.006Z,7304
2017-08-24T12:41:54.719Z,7524
2017-08-24T12:42:54.713Z,7252
2017-08-24T12:43:55.095Z,7628
2017-08-24T12:44:54.435Z,7564
2017-08-24T12:45:55.044Z,7560
2017-08-24T12:53:32.407Z,7688
2017-08-24T12:54:15.475Z,7828
2017-08-24T12:55:16.283Z,7796
2017-08-24T12:56:14.859Z,7712
2017-08-24T12:57:15.161Z,7620
2017-08-24T12:58:15.165Z,7532
2017-08-24T12:59:15.174Z,7516
2017-08-24T13:00:16.322Z,7672
2017-08-24T13:01:15.502Z,7700
2017-08-24T13:02:15.198Z,7748
2017-08-24T13:03:15.200Z,7744
2017-08-24T13:04:15.590Z,7720
2017-08-24T13:05:15.753Z,7668
2017-08-24T13:06:14.919Z,7556
2017-08-24T13:07:15.568Z,7444
2017-08-24T13:08:14.915Z,7380
2017-08-24T13:09:15.582Z,7496
2017-08-24T13:10:16.540Z,7444
2017-08-24T13:11:15.262Z,7388
2017-08-24T13:12:15.583Z,7504
2017-08-24T13:13:15.272Z,7544
2017-08-24T13:14:15.632Z,7568
2017-08-24T13:15:17.171Z,7556
2017-08-24T13:16:16.365Z,7668
2017-08-24T13:17:15.961Z,7812
2017-08-24T13:18:15.286Z,7884
2017-08-24T13:19:15.368Z,7724
2017-08-24T13:20:16.612Z,7792
2017-08-24T13:21:15.015Z,7672
2017-08-24T13:22:15.325Z,7772
2017-08-24T13:23:15.030Z,7828
2017-08-24T13:24:15.035Z,7796
2017-08-24T13:25:16.921Z,7788
2017-08-24T13:26:14.747Z,7348
2017-08-24T13:27:15.362Z,6896
2017-08-24T13:28:15.371Z,7360
2017-08-24T13:29:15.052Z,8064
2017-08-24T13:30:16.955Z,8408
2017-08-24T13:31:15.062Z,8320
2017-08-24T13:32:15.065Z,8312
2017-08-24T13:33:15.072Z,8328
2017-08-24T13:34:15.086Z,8356
2017-08-24T13:35:16.324Z,8212
2017-08-24T13:36:15.722Z,8148
2017-08-24T13:37:15.428Z,8344
2017-08-24T13:38:15.104Z,8448
2017-08-24T13:39:15.922Z,8464
2017-08-24T13:40:17.027Z,8544
2017-08-24T13:41:15.434Z,8568
2017-08-24T13:42:15.435Z,8220
2017-08-24T13:43:15.135Z,8380
2017-08-24T13:44:15.141Z,8264
2017-08-24T13:45:16.969Z,8392
2017-08-24T13:46:15.768Z,8416
2017-08-24T13:47:15.158Z,8496
2017-08-24T13:48:15.164Z,8948